sensor_id;sensor_type;location;lat;lon;timestamp;P1;durP1;ratioP1;P2;durP2;ratioP2
69890;SDS011;57170;43.964;21.262;2023-07-29T00:01:49;9.50;;;7.03;;
69890;SDS011;57170;43.964;21.262;2023-07-29T00:04:16;8.65;;;7.00;;
69890;SDS011;57170;43.964;21.262;2023-07-29T00:06:42;8.23;;;6.50;;
69890;SDS011;57170;43.964;21.262;2023-07-29T00:09:08;10.52;;;6.43;;
69890;SDS011;57170;43.964;21.262;2023-07-29T00:11:34;7.65;;;6.55;;
69890;SDS011;57170;43.964;21.262;2023-07-29T00:14:01;7.28;;;6.40;;
69890;SDS011;57170;43.964;21.262;2023-07-29T00:16:27;13.77;;;6.90;;
69890;SDS011;57170;43.964;21.262;2023-07-29T00:18:53;7.70;;;6.38;;
69890;SDS011;57170;43.964;21.262;2023-07-29T00:21:19;9.95;;;7.32;;
69890;SDS011;57170;43.964;21.262;2023-07-29T00:23:45;8.63;;;6.88;;
69890;SDS011;57170;43.964;21.262;2023-07-29T00:26:11;10.93;;;7.40;;
69890;SDS011;57170;43.964;21.262;2023-07-29T00:28:37;9.50;;;6.60;;
69890;SDS011;57170;43.964;21.262;2023-07-29T00:31:03;9.10;;;7.10;;
69890;SDS011;57170;43.964;21.262;2023-07-29T00:33:30;10.50;;;7.53;;
69890;SDS011;57170;43.964;21.262;2023-07-29T00:35:56;9.90;;;6.80;;
69890;SDS011;57170;43.964;21.262;2023-07-29T00:38:22;11.70;;;7.30;;
69890;SDS011;57170;43.964;21.262;2023-07-29T00:40:48;12.43;;;6.20;;
69890;SDS011;57170;43.964;21.262;2023-07-29T00:43:15;8.68;;;6.30;;
69890;SDS011;57170;43.964;21.262;2023-07-29T00:45:41;9.32;;;7.18;;
69890;SDS011;57170;43.964;21.262;2023-07-29T00:48:07;9.48;;;6.63;;
69890;SDS011;57170;43.964;21.262;2023-07-29T00:50:33;7.88;;;6.13;;
69890;SDS011;57170;43.964;21.262;2023-07-29T00:52:59;10.45;;;6.00;;
69890;SDS011;57170;43.964;21.262;2023-07-29T00:55:26;7.60;;;6.60;;
69890;SDS011;57170;43.964;21.262;2023-07-29T00:57:52;7.88;;;5.95;;
69890;SDS011;57170;43.964;21.262;2023-07-29T01:00:19;7.57;;;6.78;;
69890;SDS011;57170;43.964;21.262;2023-07-29T01:02:46;9.90;;;7.55;;
69890;SDS011;57170;43.964;21.262;2023-07-29T01:05:12;9.73;;;7.35;;
69890;SDS011;57170;43.964;21.262;2023-07-29T01:07:39;10.52;;;6.85;;
69890;SDS011;57170;43.964;21.262;2023-07-29T01:12:37;7.60;;;6.80;;
69890;SDS011;57170;43.964;21.262;2023-07-29T01:15:15;8.20;;;6.20;;
69890;SDS011;57170;43.964;21.262;2023-07-29T01:17:43;10.38;;;6.82;;
69890;SDS011;57170;43.964;21.262;2023-07-29T01:20:15;9.02;;;6.68;;
69890;SDS011;57170;43.964;21.262;2023-07-29T01:22:42;7.85;;;6.70;;
69890;SDS011;57170;43.964;21.262;2023-07-29T01:25:09;8.25;;;6.57;;
69890;SDS011;57170;43.964;21.262;2023-07-29T01:27:35;8.02;;;6.82;;
69890;SDS011;57170;43.964;21.262;2023-07-29T01:30:01;8.90;;;7.20;;
69890;SDS011;57170;43.964;21.262;2023-07-29T01:32:45;7.97;;;7.18;;
69890;SDS011;57170;43.964;21.262;2023-07-29T01:35:17;8.63;;;6.63;;
69890;SDS011;57170;43.964;21.262;2023-07-29T01:37:47;9.40;;;7.20;;
69890;SDS011;57170;43.964;21.262;2023-07-29T01:40:14;8.73;;;7.30;;
69890;SDS011;57170;43.964;21.262;2023-07-29T01:42:40;10.70;;;7.75;;
69890;SDS011;57170;43.964;21.262;2023-07-29T01:45:07;10.32;;;7.25;;
69890;SDS011;57170;43.964;21.262;2023-07-29T01:47:33;8.85;;;5.93;;
69890;SDS011;57170;43.964;21.262;2023-07-29T01:49:59;9.38;;;6.55;;
69890;SDS011;57170;43.964;21.262;2023-07-29T01:52:25;9.25;;;6.88;;
69890;SDS011;57170;43.964;21.262;2023-07-29T01:54:51;7.53;;;5.75;;
69890;SDS011;57170;43.964;21.262;2023-07-29T01:57:17;12.20;;;7.45;;
69890;SDS011;57170;43.964;21.262;2023-07-29T01:59:43;7.53;;;6.70;;
69890;SDS011;57170;43.964;21.262;2023-07-29T02:02:09;9.25;;;7.20;;
69890;SDS011;57170;43.964;21.262;2023-07-29T02:04:36;8.40;;;7.15;;
69890;SDS011;57170;43.964;21.262;2023-07-29T02:07:03;8.88;;;7.95;;
69890;SDS011;57170;43.964;21.262;2023-07-29T02:09:29;10.70;;;6.72;;
69890;SDS011;57170;43.964;21.262;2023-07-29T02:11:56;9.23;;;7.43;;
69890;SDS011;57170;43.964;21.262;2023-07-29T02:14:22;8.45;;;7.38;;
69890;SDS011;57170;43.964;21.262;2023-07-29T02:16:48;8.98;;;6.20;;
69890;SDS011;57170;43.964;21.262;2023-07-29T02:19:15;8.90;;;7.22;;
69890;SDS011;57170;43.964;21.262;2023-07-29T02:21:41;9.00;;;7.30;;
69890;SDS011;57170;43.964;21.262;2023-07-29T02:24:07;8.68;;;6.72;;
69890;SDS011;57170;43.964;21.262;2023-07-29T02:26:33;7.82;;;7.03;;
69890;SDS011;57170;43.964;21.262;2023-07-29T02:29:00;9.18;;;7.53;;
69890;SDS011;57170;43.964;21.262;2023-07-29T02:31:26;11.32;;;7.28;;
69890;SDS011;57170;43.964;21.262;2023-07-29T02:33:52;11.10;;;7.70;;
69890;SDS011;57170;43.964;21.262;2023-07-29T02:36:18;9.57;;;7.95;;
69890;SDS011;57170;43.964;21.262;2023-07-29T02:38:45;11.40;;;9.00;;
69890;SDS011;57170;43.964;21.262;2023-07-29T02:41:11;10.63;;;9.00;;
69890;SDS011;57170;43.964;21.262;2023-07-29T02:43:38;8.35;;;7.40;;
69890;SDS011;57170;43.964;21.262;2023-07-29T02:46:06;10.25;;;7.90;;
69890;SDS011;57170;43.964;21.262;2023-07-29T02:48:32;8.30;;;6.80;;
69890;SDS011;57170;43.964;21.262;2023-07-29T02:50:58;15.00;;;7.90;;
69890;SDS011;57170;43.964;21.262;2023-07-29T02:53:24;8.93;;;7.60;;
69890;SDS011;57170;43.964;21.262;2023-07-29T02:55:50;10.02;;;7.07;;
69890;SDS011;57170;43.964;21.262;2023-07-29T02:58:16;15.48;;;7.32;;
69890;SDS011;57170;43.964;21.262;2023-07-29T03:00:43;9.63;;;7.00;;
69890;SDS011;57170;43.964;21.262;2023-07-29T03:03:09;10.23;;;6.10;;
69890;SDS011;57170;43.964;21.262;2023-07-29T03:05:35;12.32;;;7.65;;
69890;SDS011;57170;43.964;21.262;2023-07-29T03:08:02;8.82;;;6.28;;
69890;SDS011;57170;43.964;21.262;2023-07-29T03:10:28;9.07;;;7.43;;
69890;SDS011;57170;43.964;21.262;2023-07-29T03:12:55;8.05;;;6.55;;
69890;SDS011;57170;43.964;21.262;2023-07-29T03:15:24;10.30;;;6.43;;
69890;SDS011;57170;43.964;21.262;2023-07-29T03:17:51;12.80;;;8.25;;
69890;SDS011;57170;43.964;21.262;2023-07-29T03:20:17;9.43;;;6.75;;
69890;SDS011;57170;43.964;21.262;2023-07-29T03:22:46;10.90;;;7.47;;
69890;SDS011;57170;43.964;21.262;2023-07-29T03:25:13;11.85;;;8.52;;
69890;SDS011;57170;43.964;21.262;2023-07-29T03:27:39;10.43;;;8.40;;
69890;SDS011;57170;43.964;21.262;2023-07-29T03:30:05;8.98;;;6.90;;
69890;SDS011;57170;43.964;21.262;2023-07-29T03:32:32;10.20;;;7.10;;
69890;SDS011;57170;43.964;21.262;2023-07-29T03:34:58;8.77;;;7.13;;
69890;SDS011;57170;43.964;21.262;2023-07-29T03:37:24;8.52;;;7.60;;
69890;SDS011;57170;43.964;21.262;2023-07-29T03:39:50;8.93;;;6.95;;
69890;SDS011;57170;43.964;21.262;2023-07-29T03:42:17;10.75;;;6.95;;
69890;SDS011;57170;43.964;21.262;2023-07-29T03:44:43;9.95;;;7.53;;
69890;SDS011;57170;43.964;21.262;2023-07-29T03:47:09;9.23;;;7.13;;
69890;SDS011;57170;43.964;21.262;2023-07-29T03:49:35;7.53;;;6.55;;
69890;SDS011;57170;43.964;21.262;2023-07-29T03:52:01;12.00;;;7.60;;
69890;SDS011;57170;43.964;21.262;2023-07-29T03:54:27;9.88;;;7.28;;
69890;SDS011;57170;43.964;21.262;2023-07-29T03:56:54;9.85;;;7.25;;
69890;SDS011;57170;43.964;21.262;2023-07-29T03:59:20;8.52;;;6.60;;
69890;SDS011;57170;43.964;21.262;2023-07-29T04:01:47;14.07;;;7.50;;
69890;SDS011;57170;43.964;21.262;2023-07-29T04:04:14;9.75;;;7.68;;
69890;SDS011;57170;43.964;21.262;2023-07-29T04:06:40;8.07;;;6.32;;
69890;SDS011;57170;43.964;21.262;2023-07-29T04:09:06;7.82;;;6.28;;
69890;SDS011;57170;43.964;21.262;2023-07-29T04:11:33;10.35;;;6.65;;
69890;SDS011;57170;43.964;21.262;2023-07-29T04:13:59;8.77;;;5.75;;
69890;SDS011;57170;43.964;21.262;2023-07-29T04:16:25;9.10;;;6.13;;
69890;SDS011;57170;43.964;21.262;2023-07-29T04:18:51;6.93;;;6.00;;
69890;SDS011;57170;43.964;21.262;2023-07-29T04:21:17;6.45;;;5.50;;
69890;SDS011;57170;43.964;21.262;2023-07-29T04:23:43;6.53;;;5.20;;
69890;SDS011;57170;43.964;21.262;2023-07-29T04:26:09;8.10;;;5.65;;
69890;SDS011;57170;43.964;21.262;2023-07-29T04:28:36;6.70;;;5.25;;
69890;SDS011;57170;43.964;21.262;2023-07-29T04:31:02;7.20;;;5.10;;
69890;SDS011;57170;43.964;21.262;2023-07-29T04:33:29;5.85;;;4.47;;
69890;SDS011;57170;43.964;21.262;2023-07-29T04:35:56;10.73;;;5.68;;
69890;SDS011;57170;43.964;21.262;2023-07-29T04:38:22;8.82;;;5.60;;
69890;SDS011;57170;43.964;21.262;2023-07-29T04:40:51;7.68;;;5.47;;
69890;SDS011;57170;43.964;21.262;2023-07-29T04:43:17;8.48;;;5.10;;
69890;SDS011;57170;43.964;21.262;2023-07-29T04:45:43;6.32;;;5.15;;
69890;SDS011;57170;43.964;21.262;2023-07-29T04:48:10;5.38;;;4.75;;
69890;SDS011;57170;43.964;21.262;2023-07-29T04:50:36;8.40;;;5.20;;
69890;SDS011;57170;43.964;21.262;2023-07-29T04:53:02;7.22;;;5.88;;
69890;SDS011;57170;43.964;21.262;2023-07-29T04:55:28;5.82;;;5.28;;
69890;SDS011;57170;43.964;21.262;2023-07-29T04:57:54;6.95;;;5.15;;
69890;SDS011;57170;43.964;21.262;2023-07-29T05:00:20;5.30;;;4.80;;
69890;SDS011;57170;43.964;21.262;2023-07-29T05:02:46;7.70;;;5.90;;
69890;SDS011;57170;43.964;21.262;2023-07-29T05:05:13;8.68;;;4.85;;
69890;SDS011;57170;43.964;21.262;2023-07-29T05:07:39;6.10;;;4.75;;
69890;SDS011;57170;43.964;21.262;2023-07-29T05:10:05;6.05;;;5.18;;
69890;SDS011;57170;43.964;21.262;2023-07-29T05:12:31;9.95;;;5.25;;
69890;SDS011;57170;43.964;21.262;2023-07-29T05:14:58;5.38;;;4.88;;
69890;SDS011;57170;43.964;21.262;2023-07-29T05:17:24;5.20;;;4.65;;
69890;SDS011;57170;43.964;21.262;2023-07-29T05:19:50;7.47;;;4.72;;
69890;SDS011;57170;43.964;21.262;2023-07-29T05:22:16;6.85;;;5.22;;
69890;SDS011;57170;43.964;21.262;2023-07-29T05:24:42;6.07;;;5.40;;
69890;SDS011;57170;43.964;21.262;2023-07-29T05:27:09;8.68;;;6.13;;
69890;SDS011;57170;43.964;21.262;2023-07-29T05:29:35;6.53;;;5.63;;
69890;SDS011;57170;43.964;21.262;2023-07-29T05:32:01;6.95;;;5.85;;
69890;SDS011;57170;43.964;21.262;2023-07-29T05:34:27;6.63;;;5.55;;
69890;SDS011;57170;43.964;21.262;2023-07-29T05:36:53;6.90;;;5.95;;
69890;SDS011;57170;43.964;21.262;2023-07-29T05:39:19;7.32;;;5.65;;
69890;SDS011;57170;43.964;21.262;2023-07-29T05:41:45;7.85;;;6.60;;
69890;SDS011;57170;43.964;21.262;2023-07-29T05:44:12;9.35;;;8.10;;
69890;SDS011;57170;43.964;21.262;2023-07-29T05:46:38;12.80;;;9.80;;
69890;SDS011;57170;43.964;21.262;2023-07-29T05:49:04;16.33;;;10.68;;
69890;SDS011;57170;43.964;21.262;2023-07-29T05:51:30;12.32;;;10.82;;
69890;SDS011;57170;43.964;21.262;2023-07-29T05:53:56;17.92;;;11.35;;
69890;SDS011;57170;43.964;21.262;2023-07-29T05:56:22;17.67;;;11.25;;
69890;SDS011;57170;43.964;21.262;2023-07-29T05:58:48;14.82;;;12.32;;
69890;SDS011;57170;43.964;21.262;2023-07-29T06:01:15;20.80;;;12.00;;
69890;SDS011;57170;43.964;21.262;2023-07-29T06:03:41;15.70;;;13.45;;
69890;SDS011;57170;43.964;21.262;2023-07-29T06:06:07;19.17;;;11.13;;
69890;SDS011;57170;43.964;21.262;2023-07-29T06:08:33;14.48;;;11.85;;
69890;SDS011;57170;43.964;21.262;2023-07-29T06:10:59;14.02;;;11.45;;
69890;SDS011;57170;43.964;21.262;2023-07-29T06:13:26;17.58;;;11.48;;
69890;SDS011;57170;43.964;21.262;2023-07-29T06:15:52;12.68;;;10.95;;
69890;SDS011;57170;43.964;21.262;2023-07-29T06:18:18;12.30;;;11.00;;
69890;SDS011;57170;43.964;21.262;2023-07-29T06:20:44;15.30;;;10.35;;
69890;SDS011;57170;43.964;21.262;2023-07-29T06:23:10;14.75;;;10.13;;
69890;SDS011;57170;43.964;21.262;2023-07-29T06:25:36;11.77;;;9.73;;
69890;SDS011;57170;43.964;21.262;2023-07-29T06:28:02;13.77;;;9.85;;
69890;SDS011;57170;43.964;21.262;2023-07-29T06:30:29;14.10;;;10.63;;
69890;SDS011;57170;43.964;21.262;2023-07-29T06:32:56;13.07;;;10.15;;
69890;SDS011;57170;43.964;21.262;2023-07-29T06:35:22;11.63;;;9.25;;
69890;SDS011;57170;43.964;21.262;2023-07-29T06:37:48;13.35;;;10.60;;
69890;SDS011;57170;43.964;21.262;2023-07-29T06:40:15;13.27;;;9.40;;
69890;SDS011;57170;43.964;21.262;2023-07-29T06:42:41;10.35;;;9.25;;
69890;SDS011;57170;43.964;21.262;2023-07-29T06:45:07;13.98;;;10.57;;
69890;SDS011;57170;43.964;21.262;2023-07-29T06:47:33;11.95;;;9.07;;
69890;SDS011;57170;43.964;21.262;2023-07-29T06:49:59;13.60;;;9.45;;
69890;SDS011;57170;43.964;21.262;2023-07-29T06:52:26;11.35;;;9.52;;
69890;SDS011;57170;43.964;21.262;2023-07-29T06:54:52;12.45;;;9.30;;
69890;SDS011;57170;43.964;21.262;2023-07-29T06:57:18;9.70;;;8.73;;
69890;SDS011;57170;43.964;21.262;2023-07-29T06:59:44;14.05;;;10.70;;
69890;SDS011;57170;43.964;21.262;2023-07-29T07:02:10;12.00;;;9.50;;
69890;SDS011;57170;43.964;21.262;2023-07-29T07:04:36;10.88;;;9.70;;
69890;SDS011;57170;43.964;21.262;2023-07-29T07:07:02;10.45;;;8.23;;
69890;SDS011;57170;43.964;21.262;2023-07-29T07:09:28;10.48;;;8.57;;
69890;SDS011;57170;43.964;21.262;2023-07-29T07:11:55;10.30;;;8.38;;
69890;SDS011;57170;43.964;21.262;2023-07-29T07:14:21;11.32;;;8.35;;
69890;SDS011;57170;43.964;21.262;2023-07-29T07:16:47;10.98;;;8.82;;
69890;SDS011;57170;43.964;21.262;2023-07-29T07:19:13;12.00;;;8.55;;
69890;SDS011;57170;43.964;21.262;2023-07-29T07:21:39;9.75;;;7.75;;
69890;SDS011;57170;43.964;21.262;2023-07-29T07:24:05;14.50;;;9.15;;
69890;SDS011;57170;43.964;21.262;2023-07-29T07:26:31;10.85;;;8.27;;
69890;SDS011;57170;43.964;21.262;2023-07-29T07:28:57;11.77;;;7.88;;
69890;SDS011;57170;43.964;21.262;2023-07-29T07:31:23;12.48;;;7.28;;
69890;SDS011;57170;43.964;21.262;2023-07-29T07:33:50;15.93;;;8.40;;
69890;SDS011;57170;43.964;21.262;2023-07-29T07:36:16;11.55;;;9.00;;
69890;SDS011;57170;43.964;21.262;2023-07-29T07:38:42;14.35;;;8.23;;
69890;SDS011;57170;43.964;21.262;2023-07-29T07:41:08;15.93;;;8.25;;
69890;SDS011;57170;43.964;21.262;2023-07-29T07:43:34;11.20;;;8.23;;
69890;SDS011;57170;43.964;21.262;2023-07-29T07:46:00;11.15;;;7.95;;
69890;SDS011;57170;43.964;21.262;2023-07-29T07:48:27;12.85;;;8.75;;
69890;SDS011;57170;43.964;21.262;2023-07-29T07:50:53;12.77;;;9.27;;
69890;SDS011;57170;43.964;21.262;2023-07-29T07:53:19;14.73;;;8.60;;
69890;SDS011;57170;43.964;21.262;2023-07-29T07:55:46;13.65;;;8.55;;
69890;SDS011;57170;43.964;21.262;2023-07-29T07:58:12;14.48;;;9.55;;
69890;SDS011;57170;43.964;21.262;2023-07-29T08:00:38;10.77;;;8.73;;
69890;SDS011;57170;43.964;21.262;2023-07-29T08:03:04;11.43;;;8.15;;
69890;SDS011;57170;43.964;21.262;2023-07-29T08:05:30;10.18;;;7.65;;
69890;SDS011;57170;43.964;21.262;2023-07-29T08:07:57;17.85;;;8.93;;
69890;SDS011;57170;43.964;21.262;2023-07-29T08:10:23;10.80;;;7.93;;
69890;SDS011;57170;43.964;21.262;2023-07-29T08:12:49;10.95;;;8.02;;
69890;SDS011;57170;43.964;21.262;2023-07-29T08:15:15;10.25;;;8.20;;
69890;SDS011;57170;43.964;21.262;2023-07-29T08:17:41;10.25;;;7.43;;
69890;SDS011;57170;43.964;21.262;2023-07-29T08:20:08;9.77;;;7.63;;
69890;SDS011;57170;43.964;21.262;2023-07-29T08:22:34;11.15;;;8.57;;
69890;SDS011;57170;43.964;21.262;2023-07-29T08:25:00;14.20;;;7.68;;
69890;SDS011;57170;43.964;21.262;2023-07-29T08:27:27;11.10;;;7.55;;
69890;SDS011;57170;43.964;21.262;2023-07-29T08:29:53;11.45;;;7.43;;
69890;SDS011;57170;43.964;21.262;2023-07-29T08:32:20;10.15;;;8.13;;
69890;SDS011;57170;43.964;21.262;2023-07-29T08:34:46;15.60;;;9.07;;
69890;SDS011;57170;43.964;21.262;2023-07-29T08:37:12;12.77;;;8.45;;
69890;SDS011;57170;43.964;21.262;2023-07-29T08:39:38;13.88;;;7.75;;
69890;SDS011;57170;43.964;21.262;2023-07-29T08:42:04;12.02;;;8.05;;
69890;SDS011;57170;43.964;21.262;2023-07-29T08:44:35;9.57;;;8.23;;
69890;SDS011;57170;43.964;21.262;2023-07-29T08:47:02;11.98;;;7.93;;
69890;SDS011;57170;43.964;21.262;2023-07-29T08:49:28;13.48;;;8.85;;
69890;SDS011;57170;43.964;21.262;2023-07-29T08:51:55;18.85;;;8.95;;
69890;SDS011;57170;43.964;21.262;2023-07-29T08:54:23;20.23;;;9.27;;
69890;SDS011;57170;43.964;21.262;2023-07-29T08:56:49;12.23;;;7.95;;
69890;SDS011;57170;43.964;21.262;2023-07-29T08:59:16;11.00;;;7.53;;
69890;SDS011;57170;43.964;21.262;2023-07-29T09:01:42;11.13;;;8.13;;
69890;SDS011;57170;43.964;21.262;2023-07-29T09:04:08;11.30;;;8.60;;
69890;SDS011;57170;43.964;21.262;2023-07-29T09:06:35;8.63;;;7.28;;
69890;SDS011;57170;43.964;21.262;2023-07-29T09:09:03;11.93;;;7.47;;
69890;SDS011;57170;43.964;21.262;2023-07-29T09:11:30;8.88;;;7.97;;
69890;SDS011;57170;43.964;21.262;2023-07-29T09:13:56;9.48;;;7.05;;
69890;SDS011;57170;43.964;21.262;2023-07-29T09:16:22;12.55;;;8.43;;
69890;SDS011;57170;43.964;21.262;2023-07-29T09:18:49;8.90;;;6.72;;
69890;SDS011;57170;43.964;21.262;2023-07-29T09:21:17;13.35;;;8.23;;
69890;SDS011;57170;43.964;21.262;2023-07-29T09:23:44;8.80;;;7.65;;
69890;SDS011;57170;43.964;21.262;2023-07-29T09:26:10;9.23;;;7.45;;
69890;SDS011;57170;43.964;21.262;2023-07-29T09:28:37;7.78;;;6.75;;
69890;SDS011;57170;43.964;21.262;2023-07-29T09:31:04;9.80;;;6.68;;
69890;SDS011;57170;43.964;21.262;2023-07-29T09:33:33;7.85;;;6.80;;
69890;SDS011;57170;43.964;21.262;2023-07-29T09:36:08;8.57;;;6.45;;
69890;SDS011;57170;43.964;21.262;2023-07-29T09:38:34;9.02;;;7.47;;
69890;SDS011;57170;43.964;21.262;2023-07-29T09:41:01;7.28;;;6.55;;
69890;SDS011;57170;43.964;21.262;2023-07-29T09:43:31;7.22;;;6.32;;
69890;SDS011;57170;43.964;21.262;2023-07-29T09:46:04;7.10;;;6.28;;
69890;SDS011;57170;43.964;21.262;2023-07-29T09:48:37;7.22;;;6.53;;
69890;SDS011;57170;43.964;21.262;2023-07-29T09:51:13;7.53;;;6.60;;
69890;SDS011;57170;43.964;21.262;2023-07-29T09:53:43;9.77;;;5.70;;
69890;SDS011;57170;43.964;21.262;2023-07-29T09:56:09;7.20;;;6.22;;
69890;SDS011;57170;43.964;21.262;2023-07-29T09:58:35;7.00;;;6.30;;
69890;SDS011;57170;43.964;21.262;2023-07-29T10:01:03;7.10;;;6.28;;
69890;SDS011;57170;43.964;21.262;2023-07-29T10:03:30;8.40;;;5.70;;
69890;SDS011;57170;43.964;21.262;2023-07-29T10:05:59;10.38;;;6.20;;
69890;SDS011;57170;43.964;21.262;2023-07-29T10:08:25;9.98;;;6.75;;
69890;SDS011;57170;43.964;21.262;2023-07-29T10:10:52;10.10;;;6.68;;
69890;SDS011;57170;43.964;21.262;2023-07-29T10:13:20;6.97;;;5.85;;
69890;SDS011;57170;43.964;21.262;2023-07-29T10:15:46;7.20;;;6.15;;
69890;SDS011;57170;43.964;21.262;2023-07-29T10:18:12;8.95;;;5.97;;
69890;SDS011;57170;43.964;21.262;2023-07-29T10:20:38;7.47;;;5.97;;
69890;SDS011;57170;43.964;21.262;2023-07-29T10:23:06;7.03;;;6.07;;
69890;SDS011;57170;43.964;21.262;2023-07-29T10:25:38;11.20;;;6.53;;
69890;SDS011;57170;43.964;21.262;2023-07-29T10:28:06;8.55;;;6.55;;
69890;SDS011;57170;43.964;21.262;2023-07-29T10:30:32;10.00;;;6.30;;
69890;SDS011;57170;43.964;21.262;2023-07-29T10:32:59;10.15;;;6.53;;
69890;SDS011;57170;43.964;21.262;2023-07-29T10:35:27;7.53;;;5.30;;
69890;SDS011;57170;43.964;21.262;2023-07-29T10:37:53;7.68;;;5.72;;
69890;SDS011;57170;43.964;21.262;2023-07-29T10:40:20;7.10;;;6.00;;
69890;SDS011;57170;43.964;21.262;2023-07-29T10:43:03;6.65;;;5.88;;
69890;SDS011;57170;43.964;21.262;2023-07-29T10:45:38;7.70;;;5.53;;
69890;SDS011;57170;43.964;21.262;2023-07-29T10:48:05;10.00;;;5.72;;
69890;SDS011;57170;43.964;21.262;2023-07-29T10:50:31;7.65;;;5.72;;
69890;SDS011;57170;43.964;21.262;2023-07-29T10:52:57;8.57;;;6.18;;
69890;SDS011;57170;43.964;21.262;2023-07-29T10:57:50;9.77;;;5.10;;
69890;SDS011;57170;43.964;21.262;2023-07-29T11:00:18;7.07;;;4.60;;
69890;SDS011;57170;43.964;21.262;2023-07-29T11:02:59;8.13;;;5.13;;
69890;SDS011;57170;43.964;21.262;2023-07-29T11:05:26;7.65;;;5.03;;
69890;SDS011;57170;43.964;21.262;2023-07-29T11:07:52;6.72;;;5.38;;
69890;SDS011;57170;43.964;21.262;2023-07-29T11:10:18;8.38;;;5.18;;
69890;SDS011;57170;43.964;21.262;2023-07-29T11:12:48;7.47;;;5.07;;
69890;SDS011;57170;43.964;21.262;2023-07-29T11:17:55;8.27;;;4.88;;
69890;SDS011;57170;43.964;21.262;2023-07-29T11:20:22;8.25;;;5.63;;
69890;SDS011;57170;43.964;21.262;2023-07-29T11:22:49;6.20;;;4.75;;
69890;SDS011;57170;43.964;21.262;2023-07-29T11:25:16;5.50;;;4.47;;
69890;SDS011;57170;43.964;21.262;2023-07-29T11:27:42;7.75;;;5.07;;
69890;SDS011;57170;43.964;21.262;2023-07-29T11:30:09;6.53;;;4.03;;
69890;SDS011;57170;43.964;21.262;2023-07-29T11:32:36;8.48;;;4.40;;
69890;SDS011;57170;43.964;21.262;2023-07-29T11:35:06;8.10;;;4.32;;
69890;SDS011;57170;43.964;21.262;2023-07-29T11:37:35;5.80;;;4.57;;
69890;SDS011;57170;43.964;21.262;2023-07-29T11:40:02;5.75;;;4.20;;
69890;SDS011;57170;43.964;21.262;2023-07-29T11:42:28;5.85;;;4.63;;
69890;SDS011;57170;43.964;21.262;2023-07-29T11:44:57;11.52;;;4.38;;
69890;SDS011;57170;43.964;21.262;2023-07-29T11:47:23;6.88;;;4.75;;
69890;SDS011;57170;43.964;21.262;2023-07-29T11:49:49;5.70;;;4.40;;
69890;SDS011;57170;43.964;21.262;2023-07-29T11:52:16;6.55;;;4.00;;
69890;SDS011;57170;43.964;21.262;2023-07-29T11:54:45;7.78;;;4.78;;
69890;SDS011;57170;43.964;21.262;2023-07-29T11:57:11;6.63;;;3.80;;
69890;SDS011;57170;43.964;21.262;2023-07-29T11:59:38;6.00;;;4.30;;
69890;SDS011;57170;43.964;21.262;2023-07-29T12:02:05;5.05;;;4.07;;
69890;SDS011;57170;43.964;21.262;2023-07-29T12:04:32;8.60;;;4.35;;
69890;SDS011;57170;43.964;21.262;2023-07-29T12:06:59;7.47;;;3.92;;
69890;SDS011;57170;43.964;21.262;2023-07-29T12:09:25;4.97;;;3.33;;
69890;SDS011;57170;43.964;21.262;2023-07-29T12:11:52;5.32;;;3.97;;
69890;SDS011;57170;43.964;21.262;2023-07-29T12:14:18;5.75;;;3.95;;
69890;SDS011;57170;43.964;21.262;2023-07-29T12:16:44;8.00;;;4.03;;
69890;SDS011;57170;43.964;21.262;2023-07-29T12:19:13;8.30;;;5.35;;
69890;SDS011;57170;43.964;21.262;2023-07-29T12:21:43;5.43;;;4.40;;
69890;SDS011;57170;43.964;21.262;2023-07-29T12:24:12;5.93;;;4.47;;
69890;SDS011;57170;43.964;21.262;2023-07-29T12:26:39;5.40;;;4.25;;
69890;SDS011;57170;43.964;21.262;2023-07-29T12:29:12;6.03;;;3.92;;
69890;SDS011;57170;43.964;21.262;2023-07-29T12:34:04;7.07;;;3.80;;
69890;SDS011;57170;43.964;21.262;2023-07-29T12:36:41;8.70;;;4.10;;
69890;SDS011;57170;43.964;21.262;2023-07-29T12:39:15;5.38;;;3.75;;
69890;SDS011;57170;43.964;21.262;2023-07-29T12:41:41;7.70;;;3.88;;
69890;SDS011;57170;43.964;21.262;2023-07-29T12:44:07;6.15;;;4.03;;
69890;SDS011;57170;43.964;21.262;2023-07-29T12:46:33;5.70;;;3.92;;
69890;SDS011;57170;43.964;21.262;2023-07-29T12:48:59;4.40;;;3.35;;
69890;SDS011;57170;43.964;21.262;2023-07-29T12:51:26;5.60;;;4.07;;
69890;SDS011;57170;43.964;21.262;2023-07-29T12:53:53;5.45;;;3.97;;
69890;SDS011;57170;43.964;21.262;2023-07-29T12:56:19;7.38;;;3.25;;
69890;SDS011;57170;43.964;21.262;2023-07-29T12:58:45;9.43;;;3.67;;
69890;SDS011;57170;43.964;21.262;2023-07-29T13:01:11;5.82;;;3.30;;
69890;SDS011;57170;43.964;21.262;2023-07-29T13:03:44;7.38;;;3.20;;
69890;SDS011;57170;43.964;21.262;2023-07-29T13:06:12;5.60;;;3.20;;
69890;SDS011;57170;43.964;21.262;2023-07-29T13:08:38;5.07;;;2.90;;
69890;SDS011;57170;43.964;21.262;2023-07-29T13:11:04;5.72;;;4.07;;
69890;SDS011;57170;43.964;21.262;2023-07-29T13:13:31;5.70;;;4.22;;
69890;SDS011;57170;43.964;21.262;2023-07-29T13:15:57;6.68;;;4.10;;
69890;SDS011;57170;43.964;21.262;2023-07-29T13:18:23;5.03;;;3.85;;
69890;SDS011;57170;43.964;21.262;2023-07-29T13:20:49;5.18;;;3.55;;
69890;SDS011;57170;43.964;21.262;2023-07-29T13:23:16;4.82;;;3.20;;
69890;SDS011;57170;43.964;21.262;2023-07-29T13:25:43;6.47;;;3.78;;
69890;SDS011;57170;43.964;21.262;2023-07-29T13:28:09;5.00;;;3.70;;
69890;SDS011;57170;43.964;21.262;2023-07-29T13:30:36;5.78;;;3.45;;
69890;SDS011;57170;43.964;21.262;2023-07-29T13:33:03;7.05;;;3.47;;
69890;SDS011;57170;43.964;21.262;2023-07-29T13:35:30;6.35;;;4.20;;
69890;SDS011;57170;43.964;21.262;2023-07-29T13:37:56;6.93;;;3.95;;
69890;SDS011;57170;43.964;21.262;2023-07-29T13:40:22;5.28;;;3.47;;
69890;SDS011;57170;43.964;21.262;2023-07-29T13:42:48;6.88;;;3.85;;
69890;SDS011;57170;43.964;21.262;2023-07-29T13:45:14;5.60;;;3.65;;
69890;SDS011;57170;43.964;21.262;2023-07-29T13:47:40;7.07;;;3.85;;
69890;SDS011;57170;43.964;21.262;2023-07-29T13:50:06;5.70;;;4.53;;
69890;SDS011;57170;43.964;21.262;2023-07-29T13:52:33;4.82;;;3.65;;
69890;SDS011;57170;43.964;21.262;2023-07-29T13:54:59;4.78;;;3.63;;
69890;SDS011;57170;43.964;21.262;2023-07-29T13:57:25;5.38;;;3.80;;
69890;SDS011;57170;43.964;21.262;2023-07-29T13:59:51;7.60;;;3.92;;
69890;SDS011;57170;43.964;21.262;2023-07-29T14:02:18;7.25;;;3.53;;
69890;SDS011;57170;43.964;21.262;2023-07-29T14:04:44;5.65;;;3.53;;
69890;SDS011;57170;43.964;21.262;2023-07-29T14:07:10;5.05;;;3.80;;
69890;SDS011;57170;43.964;21.262;2023-07-29T14:09:36;4.60;;;3.95;;
69890;SDS011;57170;43.964;21.262;2023-07-29T14:12:03;7.25;;;4.28;;
69890;SDS011;57170;43.964;21.262;2023-07-29T14:14:30;5.30;;;3.42;;
69890;SDS011;57170;43.964;21.262;2023-07-29T14:16:56;4.55;;;3.00;;
69890;SDS011;57170;43.964;21.262;2023-07-29T14:19:23;5.50;;;3.63;;
69890;SDS011;57170;43.964;21.262;2023-07-29T14:21:49;4.60;;;3.53;;
69890;SDS011;57170;43.964;21.262;2023-07-29T14:24:15;4.68;;;3.80;;
69890;SDS011;57170;43.964;21.262;2023-07-29T14:26:41;4.32;;;3.47;;
69890;SDS011;57170;43.964;21.262;2023-07-29T14:29:08;5.22;;;4.22;;
69890;SDS011;57170;43.964;21.262;2023-07-29T14:31:34;8.98;;;4.78;;
69890;SDS011;57170;43.964;21.262;2023-07-29T14:34:00;6.35;;;4.55;;
69890;SDS011;57170;43.964;21.262;2023-07-29T14:36:26;7.05;;;4.65;;